Terminal Aerodrome Forecast
Issued by NWS

Home | Current Version | Previous Version | Text Only | Print | Product List | Glossary On
Versions: 1 2 3 4 5 6 7 8 9 10 11 12 13 14 15
080
FTUS43 KOAX 271130 CCA
TAFBFF
TAF COR
KBFF 271130Z 2712/2812 16012KT P6SM SCT060 BKN120
     FM271800 09012G22KT P6SM VCTS BKN060CB
      TEMPO 2719/2723 VRB20G30KT 3SM TSRA BKN060CB
     FM280100 11008KT P6SM BKN060
     FM280900 11007KT 1SM BR OVC015=

USA.gov is the U.S. government's official web portal to all federal, state and local government web resources and services.